createdAt,value
2023-05-01T00:00:48.209Z,74.6490
2023-05-01T00:01:50.169Z,74.6869
2023-05-01T00:02:52.178Z,73.7645
2023-05-01T00:03:54.300Z,74.2577
2023-05-01T00:04:56.725Z,73.7495
2023-05-01T00:05:58.723Z,73.0907
2023-05-01T00:07:00.621Z,73.6400
2023-05-01T00:08:02.505Z,72.7932
2023-05-01T00:09:04.433Z,72.5981
2023-05-01T00:10:06.367Z,72.1669
2023-05-01T00:11:08.316Z,72.0109
2023-05-01T00:12:10.286Z,71.6582
2023-05-01T00:13:12.144Z,71.0834
2023-05-01T00:14:14.047Z,71.0619
2023-05-01T00:15:15.890Z,71.2325
2023-05-01T00:16:17.846Z,70.7337
2023-05-01T00:17:19.761Z,71.0869
2023-05-01T00:18:21.648Z,71.0090
2023-05-01T00:19:23.533Z,70.9513
2023-05-01T00:20:25.461Z,70.9492
2023-05-01T00:21:27.389Z,70.8035
2023-05-01T00:22:29.305Z,70.6155
2023-05-01T00:23:31.216Z,70.8214
2023-05-01T00:24:33.183Z,71.3103
2023-05-01T00:25:35.065Z,70.9261
2023-05-01T00:26:36.999Z,70.8436
2023-05-01T00:27:38.892Z,72.0201
2023-05-01T00:28:40.837Z,71.6648
2023-05-01T00:29:42.735Z,71.8085
2023-05-01T00:30:44.628Z,73.0239
2023-05-01T00:31:46.617Z,73.0626
2023-05-01T00:32:48.531Z,72.8905
2023-05-01T00:33:50.406Z,73.7742
2023-05-01T00:34:52.303Z,74.1579
2023-05-01T00:35:54.194Z,74.5448
2023-05-01T00:36:56.132Z,74.1778
2023-05-01T00:37:58.026Z,75.3078
2023-05-01T00:38:59.949Z,74.8583
2023-05-01T00:40:01.860Z,75.8387
2023-05-01T00:41:03.830Z,75.2838
2023-05-01T00:42:05.710Z,76.5887
2023-05-01T00:43:07.640Z,76.9057
2023-05-01T00:44:09.543Z,77.5480
2023-05-01T00:45:11.431Z,76.4202
2023-05-01T00:46:13.318Z,76.6483
2023-05-01T00:47:15.190Z,78.0483
2023-05-01T00:48:17.062Z,79.7186
2023-05-01T00:49:18.969Z,79.6627
2023-05-01T00:50:20.892Z,79.9637
2023-05-01T00:51:22.793Z,80.1628
2023-05-01T00:52:24.719Z,81.6751
2023-05-01T00:53:26.673Z,79.7851
2023-05-01T00:54:28.560Z,80.0456
2023-05-01T00:55:30.434Z,81.1535
2023-05-01T00:56:32.417Z,80.8757
2023-05-01T00:57:34.301Z,80.2506
2023-05-01T00:58:36.185Z,81.5852
2023-05-01T00:59:38.160Z,82.7093
2023-05-01T01:00:40.087Z,84.2573
2023-05-01T01:01:40.396Z,85.1819
2023-05-01T01:02:42.321Z,85.6578
2023-05-01T01:03:44.232Z,86.0004
2023-05-01T01:04:46.180Z,85.1870
2023-05-01T01:05:48.120Z,86.2020
2023-05-01T01:06:50.074Z,84.8569
2023-05-01T01:07:51.981Z,85.9521
2023-05-01T01:08:53.961Z,85.7454
2023-05-01T01:09:56.133Z,86.1566
2023-05-01T01:10:58.418Z,88.2201
2023-05-01T01:12:00.382Z,88.0994
2023-05-01T01:13:02.402Z,88.0604
2023-05-01T01:14:04.361Z,88.4903
2023-05-01T01:15:06.254Z,88.2925
2023-05-01T01:16:08.233Z,88.3607
2023-05-01T01:17:10.276Z,88.9873
2023-05-01T01:18:12.373Z,88.9308
2023-05-01T01:19:14.258Z,89.5477
2023-05-01T01:20:16.175Z,90.1577
2023-05-01T01:21:18.107Z,90.3082
2023-05-01T01:22:20.039Z,90.6745
2023-05-01T01:23:21.903Z,91.3146
2023-05-01T01:24:23.800Z,91.5024
2023-05-01T01:25:25.725Z,91.8662
2023-05-01T01:26:27.661Z,92.1431
2023-05-01T01:27:29.572Z,92.2522
2023-05-01T01:28:31.450Z,92.4193
2023-05-01T01:29:33.395Z,92.3604
2023-05-01T01:30:35.346Z,92.3923
2023-05-01T01:31:37.372Z,93.0019
2023-05-01T01:32:39.404Z,93.0295
2023-05-01T01:33:41.293Z,93.3084
2023-05-01T01:34:43.212Z,93.3663
2023-05-01T01:35:45.140Z,93.3118
2023-05-01T01:36:47.082Z,93.6994
2023-05-01T01:37:49.142Z,94.0352
2023-05-01T01:38:51.117Z,94.1616
2023-05-01T01:39:53.221Z,94.4311
2023-05-01T01:40:55.163Z,94.6607
2023-05-01T01:41:57.137Z,94.9642
2023-05-01T01:42:59.033Z,94.9927
2023-05-01T01:44:01.010Z,95.1262
2023-05-01T01:45:02.944Z,95.1451
2023-05-01T01:46:04.876Z,95.1109
2023-05-01T01:47:06.842Z,95.3258
2023-05-01T01:48:08.812Z,95.3827
2023-05-01T01:49:10.954Z,95.3631
2023-05-01T01:50:13.009Z,95.5299
2023-05-01T01:51:14.919Z,95.9411
2023-05-01T01:52:16.913Z,95.9856
2023-05-01T01:53:18.809Z,96.1834
2023-05-01T01:54:20.774Z,96.3784
2023-05-01T01:55:22.695Z,96.1585
2023-05-01T01:56:25.466Z,96.1040
2023-05-01T01:57:27.406Z,95.9618
2023-05-01T01:58:29.321Z,95.9072
2023-05-01T01:59:31.312Z,96.0881
2023-05-01T02:00:33.212Z,96.1626
2023-05-01T02:01:35.281Z,96.2916
2023-05-01T02:02:37.259Z,96.3991
2023-05-01T02:03:39.683Z,96.3488
2023-05-01T02:04:41.715Z,96.2058
2023-05-01T02:05:43.690Z,95.7417
2023-05-01T02:06:45.802Z,95.5338
2023-05-01T02:07:48.130Z,95.4061
2023-05-01T02:08:50.053Z,95.4525
2023-05-01T02:09:52.043Z,95.4466
2023-05-01T02:10:54.084Z,96.0585
2023-05-01T02:11:56.107Z,96.6472
2023-05-01T02:12:58.092Z,96.9759
2023-05-01T02:14:00.156Z,97.1825
2023-05-01T02:15:02.132Z,97.1416
2023-05-01T02:16:04.166Z,96.9026
2023-05-01T02:17:06.126Z,96.8277
2023-05-01T02:18:08.222Z,97.1441
2023-05-01T02:19:10.351Z,97.0280
2023-05-01T02:20:12.360Z,97.1595
2023-05-01T02:21:14.378Z,97.3586
2023-05-01T02:22:16.384Z,97.3880
2023-05-01T02:23:18.371Z,97.4064
2023-05-01T02:24:20.293Z,97.4632
2023-05-01T02:25:22.465Z,97.4227
2023-05-01T02:26:24.676Z,97.4512
2023-05-01T02:27:26.643Z,97.3764
2023-05-01T02:28:28.578Z,97.2193
2023-05-01T02:29:30.618Z,97.4144
2023-05-01T02:30:32.565Z,97.5460
2023-05-01T02:31:34.555Z,97.6090
2023-05-01T02:32:36.587Z,96.9359
2023-05-01T02:33:38.552Z,96.9060
2023-05-01T02:34:40.881Z,97.0758
2023-05-01T02:35:43.664Z,96.9030
2023-05-01T02:36:45.588Z,96.4544
2023-05-01T02:37:47.566Z,96.8243
2023-05-01T02:38:49.542Z,96.7989
2023-05-01T02:39:51.508Z,96.9311
2023-05-01T02:40:53.540Z,97.1081
2023-05-01T02:41:55.488Z,97.2858
2023-05-01T02:42:57.462Z,97.1611
2023-05-01T02:43:59.403Z,97.0418
2023-05-01T02:45:01.355Z,96.8453
2023-05-01T02:46:03.367Z,96.8732
2023-05-01T02:47:05.332Z,97.2523
2023-05-01T02:48:07.372Z,97.2471
2023-05-01T02:49:09.346Z,97.0128
2023-05-01T02:50:11.332Z,97.2845
2023-05-01T02:51:13.306Z,97.5446
2023-05-01T02:52:15.302Z,97.4141
2023-05-01T02:53:17.289Z,97.2912
2023-05-01T02:54:19.265Z,97.4316
2023-05-01T02:55:21.320Z,97.7159
2023-05-01T02:56:23.329Z,97.9267
2023-05-01T02:57:25.373Z,98.0717
2023-05-01T02:58:27.328Z,98.1336
2023-05-01T02:59:29.282Z,98.0725
2023-05-01T03:00:31.214Z,97.9959
2023-05-01T03:01:33.207Z,98.0378
2023-05-01T03:02:35.199Z,98.1550
2023-05-01T03:03:37.132Z,98.3201
2023-05-01T03:04:39.181Z,98.4502
2023-05-01T03:05:41.590Z,98.4749
2023-05-01T03:06:43.544Z,98.4735
2023-05-01T03:07:45.692Z,98.5460
2023-05-01T03:08:47.690Z,98.5309
2023-05-01T03:09:49.643Z,98.6164
2023-05-01T03:10:51.595Z,98.7284
2023-05-01T03:11:53.614Z,98.8027
2023-05-01T03:12:55.559Z,98.8788
2023-05-01T03:13:57.535Z,98.9312
2023-05-01T03:14:59.443Z,98.9844
2023-05-01T03:16:01.442Z,98.9369
2023-05-01T03:17:03.396Z,98.9459
2023-05-01T03:18:05.451Z,98.9901
2023-05-01T03:19:07.528Z,99.0059
2023-05-01T03:20:09.557Z,99.0494
2023-05-01T03:21:11.531Z,99.0751
2023-05-01T03:22:13.505Z,99.0249
2023-05-01T03:23:15.503Z,99.0762
2023-05-01T03:24:17.490Z,99.1049
2023-05-01T03:25:19.453Z,99.1775
2023-05-01T03:26:21.449Z,99.1695
2023-05-01T03:27:23.445Z,99.2051
2023-05-01T03:28:25.437Z,99.1578
2023-05-01T03:29:27.396Z,99.1758
2023-05-01T03:30:29.372Z,99.1243
2023-05-01T03:31:31.419Z,99.1696
2023-05-01T03:32:33.453Z,99.1861
2023-05-01T03:33:35.412Z,99.2347
2023-05-01T03:34:37.377Z,99.2834
2023-05-01T03:35:39.295Z,99.2893
2023-05-01T03:36:40.940Z,99.2718
2023-05-01T03:37:42.540Z,99.2735
2023-05-01T03:38:44.174Z,99.2411
2023-05-01T03:39:45.817Z,99.2443
2023-05-01T03:40:47.404Z,99.2827
2023-05-01T03:41:48.998Z,99.2336
2023-05-01T03:42:50.644Z,99.0422
2023-05-01T03:43:52.265Z,98.6196
2023-05-01T03:44:53.894Z,98.6322
2023-05-01T03:45:55.533Z,98.7137
2023-05-01T03:46:57.139Z,98.7986
2023-05-01T03:47:58.846Z,98.8547
2023-05-01T03:49:00.436Z,98.8617
2023-05-01T03:50:02.130Z,98.9272
2023-05-01T03:51:03.724Z,98.9878
2023-05-01T03:52:05.370Z,99.0333
2023-05-01T03:53:07.017Z,98.9752
2023-05-01T03:54:08.678Z,98.9206
2023-05-01T03:55:10.281Z,98.8412
2023-05-01T03:56:11.923Z,98.7112
2023-05-01T03:57:13.555Z,98.7823
2023-05-01T03:58:15.199Z,98.9158
2023-05-01T03:59:16.831Z,98.9647
2023-05-01T04:00:18.509Z,98.7994
2023-05-01T04:01:20.104Z,98.8488
2023-05-01T04:02:21.827Z,98.8792
2023-05-01T04:03:23.513Z,98.7351
2023-05-01T04:04:25.357Z,98.7203
2023-05-01T04:05:27.176Z,98.7826
2023-05-01T04:06:28.784Z,98.9095
2023-05-01T04:07:30.454Z,98.9666
2023-05-01T04:08:32.100Z,99.0181
2023-05-01T04:09:33.722Z,99.0600
2023-05-01T04:10:35.426Z,99.0764
2023-05-01T04:11:36.999Z,99.1230
2023-05-01T04:12:38.695Z,99.1161
2023-05-01T04:13:40.339Z,99.1227
2023-05-01T04:14:41.970Z,99.1384
2023-05-01T04:15:43.617Z,99.2041
2023-05-01T04:16:45.176Z,99.2314
2023-05-01T04:17:46.845Z,99.2565
2023-05-01T04:18:48.516Z,99.2873
2023-05-01T04:19:50.176Z,99.3495
2023-05-01T04:20:51.882Z,99.3630
2023-05-01T04:21:53.469Z,99.3622
2023-05-01T04:22:55.160Z,99.3887
2023-05-01T04:23:56.852Z,99.3862
2023-05-01T04:24:58.442Z,99.4118
2023-05-01T04:26:00.063Z,99.3267
2023-05-01T04:27:01.683Z,99.3379
2023-05-01T04:28:03.293Z,99.2667
2023-05-01T04:29:05.022Z,99.2764
2023-05-01T04:30:06.633Z,99.3100
2023-05-01T04:31:08.272Z,99.3098
2023-05-01T04:32:10.057Z,99.3080
2023-05-01T04:33:11.930Z,99.3342
2023-05-01T04:34:13.576Z,99.3383
2023-05-01T04:35:15.270Z,99.3133
2023-05-01T04:36:16.948Z,99.3320
2023-05-01T04:37:18.550Z,99.3160
2023-05-01T04:38:20.202Z,99.3454
2023-05-01T04:39:21.767Z,99.3812
2023-05-01T04:40:23.345Z,99.3889
2023-05-01T04:41:24.972Z,99.4123
2023-05-01T04:42:26.629Z,99.3832
2023-05-01T04:43:28.273Z,99.3975
2023-05-01T04:44:29.884Z,99.3808
2023-05-01T04:45:31.499Z,99.4132
2023-05-01T04:46:33.172Z,99.3589
2023-05-01T04:47:35.018Z,99.4431
2023-05-01T04:48:36.885Z,99.4614
2023-05-01T04:49:38.516Z,99.5091
2023-05-01T04:50:40.442Z,99.4735
2023-05-01T04:51:42.122Z,99.4010
2023-05-01T04:52:43.684Z,99.4535
2023-05-01T04:53:45.353Z,99.4713
2023-05-01T04:54:47.025Z,99.4240
2023-05-01T04:55:48.650Z,99.4435
2023-05-01T04:56:50.299Z,99.4509
2023-05-01T04:57:51.948Z,99.4948
2023-05-01T04:58:53.568Z,99.5315
2023-05-01T04:59:55.484Z,99.5940
2023-05-01T05:00:57.758Z,99.5648
2023-05-01T05:01:59.579Z,99.5929
2023-05-01T05:03:01.365Z,99.5351
2023-05-01T05:04:03.253Z,99.4890
2023-05-01T05:05:05.019Z,99.4975
2023-05-01T05:06:06.719Z,99.4988
2023-05-01T05:07:08.393Z,99.4508
2023-05-01T05:08:10.044Z,99.5017
2023-05-01T05:09:11.746Z,99.5259
2023-05-01T05:10:13.488Z,99.5041
2023-05-01T05:11:15.131Z,99.4860
2023-05-01T05:12:16.733Z,99.4593
2023-05-01T05:13:18.496Z,99.4369
2023-05-01T05:14:20.111Z,99.4438
2023-05-01T05:15:21.771Z,99.4321
2023-05-01T05:16:23.376Z,99.4779
2023-05-01T05:17:24.938Z,99.4912
2023-05-01T05:18:26.578Z,99.4727
2023-05-01T05:19:28.183Z,99.5292
2023-05-01T05:20:29.846Z,99.5379
2023-05-01T05:21:31.478Z,99.4752
2023-05-01T05:22:33.126Z,99.4885
2023-05-01T05:23:34.779Z,99.4702
2023-05-01T05:24:36.444Z,99.4489
2023-05-01T05:25:38.158Z,99.4288
2023-05-01T05:26:39.806Z,99.4295
2023-05-01T05:27:41.414Z,99.4755
2023-05-01T05:28:43.131Z,99.4802
2023-05-01T05:29:44.810Z,99.4523
2023-05-01T05:30:46.518Z,99.4532
2023-05-01T05:31:48.207Z,99.3658
2023-05-01T05:32:49.834Z,99.3681
2023-05-01T05:33:51.553Z,99.4016
2023-05-01T05:34:53.175Z,99.3950
2023-05-01T05:35:54.914Z,99.4023
2023-05-01T05:36:56.509Z,99.3772
2023-05-01T05:37:58.153Z,99.2830
2023-05-01T05:38:59.814Z,99.3066
2023-05-01T05:40:01.424Z,99.3469
2023-05-01T05:41:03.072Z,99.3789
2023-05-01T05:42:04.732Z,99.4115
2023-05-01T05:43:06.486Z,99.4406
2023-05-01T05:44:08.129Z,99.4647
2023-05-01T05:45:09.795Z,99.4839
2023-05-01T05:46:11.420Z,99.5018
2023-05-01T05:47:13.019Z,99.5048
2023-05-01T05:48:14.722Z,99.5159
2023-05-01T05:49:16.371Z,99.5718
2023-05-01T05:50:17.987Z,99.5521
2023-05-01T05:51:19.587Z,99.4556
2023-05-01T05:52:21.292Z,99.4962
2023-05-01T05:53:25.584Z,99.5096
2023-05-01T05:54:24.969Z,99.4106
2023-05-01T05:55:26.624Z,99.3294
2023-05-01T05:56:28.248Z,99.2653
2023-05-01T05:57:29.941Z,99.2234
2023-05-01T05:58:31.499Z,99.2625
2023-05-01T05:59:33.143Z,99.2759
2023-05-01T06:00:34.711Z,99.2884
2023-05-01T06:01:36.355Z,99.3133
2023-05-01T06:02:38.047Z,99.3818
2023-05-01T06:03:39.910Z,99.4036
2023-05-01T06:04:41.651Z,99.4362
2023-05-01T06:05:43.361Z,99.5022
2023-05-01T06:06:45.304Z,99.5374
2023-05-01T06:07:47.278Z,99.5143
2023-05-01T06:08:49.251Z,99.5657
2023-05-01T06:09:51.262Z,99.5610
2023-05-01T06:10:53.317Z,99.5878
2023-05-01T06:11:55.189Z,99.6045
2023-05-01T06:13:03.032Z,99.6130
2023-05-01T06:13:58.829Z,99.6147
2023-05-01T06:15:00.655Z,99.6056
2023-05-01T06:16:02.350Z,99.5689
2023-05-01T06:17:03.927Z,99.5515
2023-05-01T06:18:05.570Z,99.5545
2023-05-01T06:19:07.189Z,99.5659
2023-05-01T06:20:08.846Z,99.5696
2023-05-01T06:21:10.499Z,99.5946
2023-05-01T06:22:12.231Z,99.5401
2023-05-01T06:23:13.832Z,99.5324
2023-05-01T06:24:15.432Z,99.4768
2023-05-01T06:25:17.258Z,99.5057
2023-05-01T06:26:18.922Z,99.4273
2023-05-01T06:27:20.595Z,99.4180
2023-05-01T06:28:22.189Z,99.4018
2023-05-01T06:29:23.830Z,99.3949
2023-05-01T06:30:25.497Z,99.3566
2023-05-01T06:31:27.230Z,99.3384
2023-05-01T06:32:29.007Z,99.3149
2023-05-01T06:33:30.678Z,99.2862
2023-05-01T06:34:32.316Z,99.2871
2023-05-01T06:35:34.029Z,99.2828
2023-05-01T06:36:35.692Z,99.2092
2023-05-01T06:37:37.328Z,99.1736
2023-05-01T06:38:38.982Z,99.1615
2023-05-01T06:39:40.597Z,99.1426
2023-05-01T06:40:42.283Z,99.1457
2023-05-01T06:41:43.921Z,99.1105
2023-05-01T06:42:45.604Z,99.0626
2023-05-01T06:43:47.224Z,99.0790
2023-05-01T06:44:48.911Z,98.9899
2023-05-01T06:45:50.560Z,98.9020
2023-05-01T06:46:52.267Z,98.8493
2023-05-01T06:47:53.941Z,98.7793
2023-05-01T06:48:55.607Z,98.6995
2023-05-01T06:49:57.536Z,98.6328
2023-05-01T06:50:59.392Z,98.5593
2023-05-01T06:52:01.058Z,98.4861
2023-05-01T06:53:02.694Z,98.4210
2023-05-01T06:54:04.323Z,98.2835
2023-05-01T06:55:05.940Z,98.3234
2023-05-01T06:56:07.589Z,98.3708
2023-05-01T06:57:09.212Z,98.2824
2023-05-01T06:58:22.364Z,98.2499
2023-05-01T06:59:12.783Z,98.1463
2023-05-01T07:00:14.505Z,97.9972
2023-05-01T07:01:16.235Z,98.0492
2023-05-01T07:02:17.962Z,98.1097
2023-05-01T07:03:19.725Z,98.0068
2023-05-01T07:04:21.507Z,98.0175
2023-05-01T07:05:23.154Z,97.9672
2023-05-01T07:06:24.777Z,98.0376
2023-05-01T07:07:26.437Z,98.0431
2023-05-01T07:08:28.097Z,97.8897
2023-05-01T07:09:29.719Z,97.8460
2023-05-01T07:10:31.371Z,97.9425
2023-05-01T07:11:33.085Z,97.8712
2023-05-01T07:12:34.758Z,97.8911
2023-05-01T07:13:36.506Z,97.8999
2023-05-01T07:14:38.199Z,97.9855
2023-05-01T07:15:40.184Z,97.9233
2023-05-01T07:16:42.238Z,97.9823
2023-05-01T07:17:44.266Z,97.9025
2023-05-01T07:18:46.304Z,97.9451
2023-05-01T07:19:48.250Z,98.0336
2023-05-01T07:20:50.396Z,98.0081
2023-05-01T07:21:52.494Z,97.8832
2023-05-01T07:22:54.511Z,97.8286
2023-05-01T07:23:56.540Z,97.6787
2023-05-01T07:24:58.508Z,97.6792
2023-05-01T07:26:00.615Z,97.5099
2023-05-01T07:27:02.649Z,97.5006
2023-05-01T07:28:04.921Z,97.4685
2023-05-01T07:29:06.974Z,97.4471
2023-05-01T07:30:08.996Z,97.4103
2023-05-01T07:31:11.261Z,97.4769
2023-05-01T07:32:13.429Z,97.6687
2023-05-01T07:33:15.762Z,97.6072
2023-05-01T07:34:17.815Z,97.5176
2023-05-01T07:35:19.838Z,97.4319
2023-05-01T07:36:21.843Z,97.1981
2023-05-01T07:37:23.869Z,96.9778
2023-05-01T07:38:25.851Z,97.1191
2023-05-01T07:39:27.854Z,97.1557
2023-05-01T07:40:29.929Z,97.2620
2023-05-01T07:41:31.961Z,97.4120
2023-05-01T07:42:34.054Z,97.4833
2023-05-01T07:43:36.080Z,97.7195
2023-05-01T07:44:38.138Z,97.6885
2023-05-01T07:45:40.332Z,97.6815
2023-05-01T07:46:42.538Z,97.7705
2023-05-01T07:47:44.584Z,97.5741
2023-05-01T07:48:46.737Z,97.3504
2023-05-01T07:49:48.729Z,97.5910
2023-05-01T07:50:50.814Z,97.6890
2023-05-01T07:51:52.921Z,97.4680
2023-05-01T07:52:54.957Z,97.4939
2023-05-01T07:53:56.981Z,97.5766
2023-05-01T07:54:58.980Z,97.5645
2023-05-01T07:56:01.049Z,97.6811
2023-05-01T07:57:03.204Z,97.3397
2023-05-01T07:58:05.237Z,97.1878
2023-05-01T07:59:07.258Z,97.2104
2023-05-01T08:00:09.304Z,97.4950
2023-05-01T08:01:11.317Z,97.6563
2023-05-01T08:02:13.349Z,97.6543
2023-05-01T08:03:15.484Z,97.7516
2023-05-01T08:04:17.684Z,97.5952
2023-05-01T08:05:19.776Z,97.5450
2023-05-01T08:06:21.851Z,97.4062
2023-05-01T08:07:23.815Z,97.5161
2023-05-01T08:08:25.862Z,97.4467
2023-05-01T08:09:27.985Z,97.4300
2023-05-01T08:10:30.113Z,97.2303
2023-05-01T08:11:32.182Z,97.1425
2023-05-01T08:12:34.185Z,97.2738
2023-05-01T08:13:36.271Z,97.0546
2023-05-01T08:14:38.327Z,96.7575
2023-05-01T08:15:40.396Z,96.7901
2023-05-01T08:16:42.480Z,96.5515
2023-05-01T08:17:44.577Z,96.3978
2023-05-01T08:18:47.105Z,96.1540
2023-05-01T08:19:49.182Z,96.3893
2023-05-01T08:20:51.034Z,96.6050
2023-05-01T08:21:52.835Z,96.4850
2023-05-01T08:22:54.452Z,96.4195
2023-05-01T08:23:56.196Z,96.3692
2023-05-01T08:24:57.929Z,96.2344
2023-05-01T08:25:59.619Z,96.4889
2023-05-01T08:27:01.312Z,96.3619
2023-05-01T08:28:02.990Z,96.2925
2023-05-01T08:29:04.654Z,96.3521
2023-05-01T08:30:06.324Z,96.5985
2023-05-01T08:31:08.033Z,96.2310
2023-05-01T08:32:09.666Z,96.3419
2023-05-01T08:33:11.357Z,96.1626
2023-05-01T08:34:13.025Z,96.3041
2023-05-01T08:35:14.768Z,96.1903
2023-05-01T08:36:16.441Z,95.6547
2023-05-01T08:37:18.147Z,95.3601
2023-05-01T08:38:19.863Z,95.0143
2023-05-01T08:39:21.511Z,94.8105
2023-05-01T08:40:23.315Z,94.5561
2023-05-01T08:41:24.980Z,94.9446
2023-05-01T08:42:26.712Z,95.2938
2023-05-01T08:43:28.384Z,94.8312
2023-05-01T08:44:30.119Z,94.7281
2023-05-01T08:45:31.995Z,94.9008
2023-05-01T08:46:33.781Z,94.8654
2023-05-01T08:47:35.472Z,94.5967
2023-05-01T08:48:37.174Z,94.4739
2023-05-01T08:49:39.002Z,94.5720
2023-05-01T08:50:40.720Z,94.8135
2023-05-01T08:51:42.435Z,95.1971
2023-05-01T08:52:44.149Z,95.4680
2023-05-01T08:53:45.922Z,95.2924
2023-05-01T08:54:47.632Z,94.4237
2023-05-01T08:55:49.304Z,94.5835
2023-05-01T08:56:50.993Z,94.7657
2023-05-01T08:57:52.668Z,94.4675
2023-05-01T08:58:54.327Z,94.1806
2023-05-01T08:59:56.125Z,94.5802
2023-05-01T09:00:57.953Z,93.9807
2023-05-01T09:01:59.705Z,93.7530
2023-05-01T09:03:01.516Z,93.6905
2023-05-01T09:04:03.302Z,93.6769
2023-05-01T09:05:05.325Z,94.2883
2023-05-01T09:06:07.115Z,94.2890
2023-05-01T09:07:08.832Z,94.2896
2023-05-01T09:08:10.541Z,94.5573
2023-05-01T09:09:12.171Z,94.0042
2023-05-01T09:10:14.039Z,94.4357
2023-05-01T09:11:15.726Z,94.6824
2023-05-01T09:12:17.532Z,94.5589
2023-05-01T09:13:19.215Z,94.7261
2023-05-01T09:14:20.857Z,94.8130
2023-05-01T09:15:22.567Z,94.3939
2023-05-01T09:16:24.335Z,94.4771
2023-05-01T09:17:26.081Z,94.4060
2023-05-01T09:18:27.713Z,94.0869
2023-05-01T09:19:29.406Z,93.9893
2023-05-01T09:20:31.135Z,94.6557
2023-05-01T09:21:32.865Z,94.3771
2023-05-01T09:22:34.528Z,93.7273
2023-05-01T09:23:36.177Z,93.6215
2023-05-01T09:24:37.864Z,93.7893
2023-05-01T09:25:39.783Z,94.2584
2023-05-01T09:26:41.453Z,93.4560
2023-05-01T09:27:43.135Z,93.5020
2023-05-01T09:28:44.759Z,93.3727
2023-05-01T09:29:46.438Z,93.5115
2023-05-01T09:30:48.187Z,93.6183
2023-05-01T09:31:49.833Z,93.0681
2023-05-01T09:32:51.636Z,92.8378
2023-05-01T09:33:53.321Z,91.8823
2023-05-01T09:34:55.047Z,91.4679
2023-05-01T09:35:56.827Z,91.1541
2023-05-01T09:36:58.510Z,91.4756
2023-05-01T09:38:00.161Z,91.2536
2023-05-01T09:39:01.891Z,92.1175
2023-05-01T09:40:03.604Z,90.9601
2023-05-01T09:41:05.298Z,90.1829
2023-05-01T09:42:06.999Z,90.8560
2023-05-01T09:43:11.149Z,92.1189
2023-05-01T09:44:10.717Z,92.2457
2023-05-01T09:45:12.388Z,91.4402
2023-05-01T09:46:14.186Z,91.0515
2023-05-01T09:47:15.906Z,91.4952
2023-05-01T09:48:17.598Z,91.6808
2023-05-01T09:49:19.419Z,91.8189
2023-05-01T09:50:21.103Z,91.8848
2023-05-01T09:51:22.806Z,91.1969
2023-05-01T09:52:24.555Z,90.4782
2023-05-01T09:53:26.264Z,89.8426
2023-05-01T09:54:27.916Z,89.5345
2023-05-01T09:55:29.643Z,89.7946
2023-05-01T09:56:31.411Z,90.4690
2023-05-01T09:57:33.110Z,90.7358
2023-05-01T09:58:34.897Z,89.1245
2023-05-01T09:59:36.545Z,88.4976
2023-05-01T10:00:38.196Z,89.2856
2023-05-01T10:01:40.074Z,88.6779
2023-05-01T10:02:41.981Z,88.9453
2023-05-01T10:03:43.734Z,89.5042
2023-05-01T10:04:45.414Z,89.9798
2023-05-01T10:05:47.038Z,88.6417
2023-05-01T10:06:48.817Z,88.7617
2023-05-01T10:07:50.512Z,89.7805
2023-05-01T10:08:52.177Z,89.8077
2023-05-01T10:09:53.975Z,88.7033
2023-05-01T10:10:55.772Z,90.1040
2023-05-01T10:11:57.723Z,90.1124
2023-05-01T10:12:59.927Z,89.7411
2023-05-01T10:14:01.608Z,89.2602
2023-05-01T10:15:13.679Z,89.3068
2023-05-01T10:16:05.298Z,88.4948
2023-05-01T10:17:07.031Z,88.5002
2023-05-01T10:18:08.929Z,88.4036
2023-05-01T10:19:10.642Z,88.8527
2023-05-01T10:20:12.360Z,89.2237
2023-05-01T10:21:14.037Z,89.2299
2023-05-01T10:22:15.862Z,88.6041
2023-05-01T10:23:17.514Z,88.0984
2023-05-01T10:24:19.241Z,87.6500
2023-05-01T10:25:20.970Z,85.7357
2023-05-01T10:26:22.640Z,85.0714
2023-05-01T10:27:24.336Z,85.5475
2023-05-01T10:28:26.041Z,87.5592
2023-05-01T10:29:27.669Z,87.3849
2023-05-01T10:30:29.373Z,86.9162
2023-05-01T10:31:31.248Z,87.7403
2023-05-01T10:32:32.994Z,86.7052
2023-05-01T10:33:34.623Z,86.7639
2023-05-01T10:34:36.257Z,86.5714
2023-05-01T10:35:37.902Z,85.3299
2023-05-01T10:36:39.571Z,85.7677
2023-05-01T10:37:41.252Z,85.8354
2023-05-01T10:38:42.902Z,86.4648
2023-05-01T10:39:44.487Z,85.2036
2023-05-01T10:40:46.161Z,84.0219
2023-05-01T10:41:47.790Z,85.0631
2023-05-01T10:42:49.422Z,82.6227
2023-05-01T10:43:51.081Z,82.4869
2023-05-01T10:44:52.702Z,82.1420
2023-05-01T10:45:54.345Z,82.1124
2023-05-01T10:46:56.076Z,82.0748
2023-05-01T10:47:57.866Z,82.6429
2023-05-01T10:48:59.591Z,83.0245
2023-05-01T10:50:01.205Z,83.7326
2023-05-01T10:51:02.868Z,83.2796
2023-05-01T10:52:04.472Z,82.2427
2023-05-01T10:53:06.096Z,83.6485
2023-05-01T10:54:07.744Z,84.5786
2023-05-01T10:55:09.404Z,84.3112
2023-05-01T10:56:11.004Z,83.5584
2023-05-01T10:57:12.806Z,83.8241
2023-05-01T10:58:14.556Z,84.3499
2023-05-01T10:59:16.222Z,83.3148
2023-05-01T11:00:17.816Z,84.4511
2023-05-01T11:01:19.471Z,84.8606
2023-05-01T11:02:21.359Z,84.3986
2023-05-01T11:03:23.165Z,84.1398
2023-05-01T11:04:24.908Z,84.7683
2023-05-01T11:05:37.973Z,84.6650
2023-05-01T11:06:28.723Z,85.5195
2023-05-01T11:07:30.428Z,85.6058
2023-05-01T11:08:32.160Z,85.7394
2023-05-01T11:09:33.926Z,86.8202
2023-05-01T11:10:35.603Z,87.0612
2023-05-01T11:11:37.254Z,86.6302
2023-05-01T11:12:38.909Z,86.3306
2023-05-01T11:13:40.654Z,86.7916
2023-05-01T11:14:42.294Z,84.7480
2023-05-01T11:15:43.975Z,85.9700
2023-05-01T11:16:45.734Z,86.4173
2023-05-01T11:17:47.519Z,86.8507
2023-05-01T11:18:49.202Z,86.5155
2023-05-01T11:19:51.071Z,87.1292
2023-05-01T11:20:52.751Z,87.6811
2023-05-01T11:21:54.449Z,87.9532
2023-05-01T11:22:56.086Z,87.8786
2023-05-01T11:23:57.790Z,88.3470
2023-05-01T11:24:59.709Z,88.2863
2023-05-01T11:26:01.638Z,87.7850
2023-05-01T11:27:03.333Z,87.7148
2023-05-01T11:28:04.999Z,89.0024
2023-05-01T11:29:06.723Z,89.3812
2023-05-01T11:30:08.409Z,89.6247
2023-05-01T11:31:10.060Z,88.7502
2023-05-01T11:32:11.937Z,89.1562
2023-05-01T11:33:13.722Z,89.7857
2023-05-01T11:34:15.387Z,88.5890
2023-05-01T11:35:17.046Z,89.1942
2023-05-01T11:36:18.875Z,88.6280
2023-05-01T11:37:20.519Z,88.6533
2023-05-01T11:38:22.232Z,87.0776
2023-05-01T11:39:23.918Z,87.7176
2023-05-01T11:40:25.642Z,87.0952
2023-05-01T11:41:27.326Z,85.7746
2023-05-01T11:42:29.020Z,84.6564
2023-05-01T11:43:30.885Z,85.3374
2023-05-01T11:44:32.570Z,86.0480
2023-05-01T11:45:34.289Z,86.3229
2023-05-01T11:46:36.163Z,87.1053
2023-05-01T11:47:37.891Z,86.5513
2023-05-01T11:48:39.555Z,85.2981
2023-05-01T11:49:41.197Z,85.4569
2023-05-01T11:50:42.807Z,85.9433
2023-05-01T11:51:44.502Z,85.8635
2023-05-01T11:52:46.107Z,85.7889
2023-05-01T11:53:47.754Z,85.2035
2023-05-01T11:54:49.477Z,85.5159
2023-05-01T11:55:51.178Z,86.2821
2023-05-01T11:56:52.870Z,85.2633
2023-05-01T11:57:54.606Z,85.0737
2023-05-01T11:58:56.471Z,85.5650
2023-05-01T11:59:58.395Z,86.0109
2023-05-01T12:01:00.157Z,85.0414
2023-05-01T12:02:02.125Z,84.8261
2023-05-01T12:03:04.379Z,84.0450
2023-05-01T12:04:06.945Z,82.8555
2023-05-01T12:05:09.324Z,83.6644
2023-05-01T12:06:11.448Z,83.3986
2023-05-01T12:07:13.537Z,83.5137
2023-05-01T12:08:16.133Z,84.2659
2023-05-01T12:09:18.277Z,83.6833
2023-05-01T12:10:20.375Z,83.8920
2023-05-01T12:11:22.376Z,84.5266
2023-05-01T12:12:24.415Z,83.7901
2023-05-01T12:13:26.442Z,85.0643
2023-05-01T12:14:28.489Z,84.2764
2023-05-01T12:15:30.577Z,84.0608
2023-05-01T12:16:32.884Z,83.6488
2023-05-01T12:17:34.987Z,83.7023
2023-05-01T12:18:37.034Z,83.7014
2023-05-01T12:19:39.075Z,84.6178
2023-05-01T12:20:41.085Z,83.6782
2023-05-01T12:21:43.170Z,83.7554
2023-05-01T12:22:45.503Z,83.5230
2023-05-01T12:23:47.890Z,83.4456
2023-05-01T12:24:50.306Z,83.4748
2023-05-01T12:25:52.290Z,83.5351
2023-05-01T12:26:54.302Z,82.9280
2023-05-01T12:27:56.327Z,82.5506